createdAt,value
2023-03-31T00:00:20.994Z,67.81
2023-03-31T00:03:11.144Z,67.59
2023-03-31T00:06:01.901Z,67.73
2023-03-31T00:08:52.348Z,68.20
2023-03-31T00:11:42.004Z,68.22
2023-03-31T00:14:30.758Z,68.52
2023-03-31T00:17:20.388Z,68.35
2023-03-31T00:20:12.630Z,68.56
2023-03-31T00:23:02.435Z,68.74
2023-03-31T00:25:51.117Z,69.01
2023-03-31T00:28:39.973Z,69.38
2023-03-31T00:31:29.737Z,69.37
2023-03-31T00:34:19.967Z,69.33
2023-03-31T00:37:10.157Z,69.59
2023-03-31T00:39:59.902Z,69.63
2023-03-31T00:42:48.583Z,69.79
2023-03-31T00:45:38.232Z,69.70
2023-03-31T00:48:28.111Z,69.63
2023-03-31T00:51:17.458Z,69.82
2023-03-31T00:54:09.016Z,69.56
2023-03-31T00:57:03.401Z,69.65
2023-03-31T00:59:58.546Z,70.00
2023-03-31T01:02:53.480Z,69.94
2023-03-31T01:05:47.314Z,69.71
2023-03-31T01:08:38.170Z,69.75
2023-03-31T01:11:32.026Z,70.05
2023-03-31T01:14:20.706Z,69.70
2023-03-31T01:17:11.032Z,69.62
2023-03-31T01:20:15.412Z,69.76
2023-03-31T01:23:42.679Z,69.80
2023-03-31T01:26:45.865Z,69.82
2023-03-31T01:30:14.095Z,69.84
2023-03-31T01:33:39.930Z,69.76
2023-03-31T01:37:01.887Z,69.66
2023-03-31T01:40:26.466Z,69.56
2023-03-31T01:43:24.440Z,69.87
2023-03-31T01:46:22.289Z,69.67
2023-03-31T01:49:19.107Z,69.85
2023-03-31T01:52:17.287Z,69.70
2023-03-31T01:55:12.733Z,69.75
2023-03-31T01:58:10.176Z,69.86
2023-03-31T02:01:01.949Z,70.00
2023-03-31T02:03:57.095Z,70.04
2023-03-31T02:06:53.021Z,69.75
2023-03-31T02:09:45.486Z,69.93
2023-03-31T02:12:37.491Z,70.00
2023-03-31T02:15:31.756Z,69.85
2023-03-31T02:18:26.221Z,69.84
2023-03-31T02:21:17.205Z,70.09
2023-03-31T02:24:10.852Z,70.00
2023-03-31T02:27:06.908Z,70.04
2023-03-31T02:29:56.690Z,70.11
2023-03-31T02:32:47.941Z,70.30
2023-03-31T02:35:37.305Z,70.31
2023-03-31T02:38:26.436Z,70.18
2023-03-31T02:41:15.829Z,70.36
2023-03-31T02:44:05.314Z,70.51
2023-03-31T02:46:55.401Z,70.50
2023-03-31T02:49:51.006Z,70.40
2023-03-31T02:52:53.006Z,70.44
2023-03-31T02:56:02.181Z,70.39
2023-03-31T02:59:03.272Z,70.86
2023-03-31T03:02:06.759Z,71.21
2023-03-31T03:05:10.332Z,71.21
2023-03-31T03:08:16.329Z,71.58
2023-03-31T03:11:18.348Z,71.48
2023-03-31T03:14:15.782Z,71.71
2023-03-31T03:17:10.069Z,71.44
2023-03-31T03:20:04.169Z,72.04
2023-03-31T03:22:53.697Z,71.99
2023-03-31T03:25:42.777Z,72.01
2023-03-31T03:28:32.926Z,71.92
2023-03-31T03:31:24.161Z,72.14
2023-03-31T03:34:13.513Z,71.87
2023-03-31T03:37:03.519Z,71.97
2023-03-31T03:39:52.914Z,72.03
2023-03-31T03:42:42.103Z,72.26
2023-03-31T03:45:30.833Z,72.26
2023-03-31T03:48:20.126Z,72.58
2023-03-31T03:51:08.734Z,72.35
2023-03-31T03:53:59.141Z,72.68
2023-03-31T03:56:47.865Z,72.83
2023-03-31T03:59:37.415Z,72.73
2023-03-31T04:02:28.687Z,72.35
2023-03-31T04:05:17.847Z,72.27
2023-03-31T04:08:08.497Z,72.40
2023-03-31T04:10:59.576Z,72.46
2023-03-31T04:13:48.658Z,72.36
2023-03-31T04:16:38.561Z,72.72
2023-03-31T04:19:27.533Z,72.77
2023-03-31T04:22:20.987Z,73.06
2023-03-31T04:25:14.938Z,73.30
2023-03-31T04:28:07.410Z,73.53
2023-03-31T04:30:58.868Z,73.53
2023-03-31T04:33:48.340Z,73.59
2023-03-31T04:36:43.799Z,73.51
2023-03-31T04:39:33.042Z,73.57
2023-03-31T04:42:21.731Z,73.66
2023-03-31T04:45:13.380Z,73.76
2023-03-31T04:48:03.485Z,73.87
2023-03-31T04:50:52.608Z,74.12
2023-03-31T04:53:41.235Z,74.40
2023-03-31T04:56:30.959Z,74.55
2023-03-31T04:59:19.603Z,74.99
2023-03-31T05:02:10.570Z,75.20
2023-03-31T05:04:59.338Z,75.67
2023-03-31T05:07:48.724Z,75.67
2023-03-31T05:10:37.609Z,76.31
2023-03-31T05:13:27.097Z,76.27
2023-03-31T05:16:16.643Z,76.65
2023-03-31T05:19:06.676Z,77.09
2023-03-31T05:21:55.868Z,77.78
2023-03-31T05:24:44.510Z,78.04
2023-03-31T05:27:33.851Z,78.40
2023-03-31T05:30:22.653Z,78.35
2023-03-31T05:33:11.913Z,78.57
2023-03-31T05:36:04.877Z,78.70
2023-03-31T05:38:55.211Z,79.00
2023-03-31T05:41:43.869Z,79.34
2023-03-31T05:44:32.801Z,79.54
2023-03-31T05:47:23.203Z,79.58
2023-03-31T05:50:14.662Z,79.83
2023-03-31T05:53:05.457Z,80.21
2023-03-31T05:55:59.517Z,80.26
2023-03-31T05:58:48.192Z,80.52
2023-03-31T06:01:37.516Z,80.81
2023-03-31T06:04:26.262Z,80.96
2023-03-31T06:07:15.523Z,81.19
2023-03-31T06:10:08.040Z,81.24
2023-03-31T06:12:57.020Z,81.87
2023-03-31T06:15:54.323Z,82.07
2023-03-31T06:18:43.362Z,81.91
2023-03-31T06:21:32.068Z,82.13
2023-03-31T06:24:21.778Z,82.28
2023-03-31T06:27:11.805Z,82.26
2023-03-31T06:30:01.337Z,82.53
2023-03-31T06:32:50.194Z,82.50
2023-03-31T06:35:41.091Z,82.39
2023-03-31T06:38:29.777Z,82.55
2023-03-31T06:41:21.054Z,82.50
2023-03-31T06:44:11.728Z,82.56
2023-03-31T06:47:00.374Z,82.83
2023-03-31T06:49:49.751Z,82.72
2023-03-31T06:52:38.956Z,82.72
2023-03-31T06:55:28.482Z,82.48
2023-03-31T06:58:17.242Z,82.44
2023-03-31T07:01:08.773Z,82.31
2023-03-31T07:03:57.692Z,82.62
2023-03-31T07:06:47.187Z,82.54
2023-03-31T07:09:35.854Z,82.35
2023-03-31T07:12:25.558Z,82.31
2023-03-31T07:15:14.206Z,82.34
2023-03-31T07:18:05.330Z,82.67
2023-03-31T07:20:54.126Z,82.51
2023-03-31T07:23:43.218Z,82.41
2023-03-31T07:26:31.899Z,82.45
2023-03-31T07:29:22.936Z,82.61
2023-03-31T07:32:11.617Z,82.30
2023-03-31T07:35:02.172Z,82.64
2023-03-31T07:37:52.460Z,82.52
2023-03-31T07:40:42.262Z,82.66
2023-03-31T07:43:30.955Z,82.38
2023-03-31T07:46:23.285Z,82.50
2023-03-31T07:49:16.027Z,82.64
2023-03-31T07:52:06.423Z,82.89
2023-03-31T07:54:55.180Z,82.85
2023-03-31T07:57:46.298Z,82.88
2023-03-31T08:00:35.068Z,82.84
2023-03-31T08:03:24.401Z,82.96
2023-03-31T08:06:18.353Z,82.88
2023-03-31T08:09:08.511Z,83.11
2023-03-31T08:11:57.730Z,82.92
2023-03-31T08:14:46.349Z,83.21
2023-03-31T08:17:35.784Z,83.36
2023-03-31T08:20:24.540Z,83.83
2023-03-31T08:23:13.212Z,84.15
2023-03-31T08:26:15.776Z,84.19
2023-03-31T08:29:06.653Z,84.55
2023-03-31T08:31:55.539Z,84.56
2023-03-31T08:34:46.058Z,84.82
2023-03-31T08:37:34.817Z,85.30
2023-03-31T08:40:27.206Z,85.31
2023-03-31T08:43:23.835Z,85.37
2023-03-31T08:46:16.353Z,85.24
2023-03-31T08:49:05.952Z,85.50
2023-03-31T08:52:04.290Z,85.69
2023-03-31T08:54:56.670Z,85.49
2023-03-31T08:57:57.471Z,86.01
2023-03-31T09:00:56.038Z,85.96
2023-03-31T09:03:52.541Z,85.70
2023-03-31T09:06:45.564Z,85.56
2023-03-31T09:09:41.775Z,85.48
2023-03-31T09:12:39.905Z,85.50
2023-03-31T09:15:32.556Z,85.53
2023-03-31T09:18:37.609Z,85.34
2023-03-31T09:21:31.846Z,85.15
2023-03-31T09:24:24.506Z,85.52
2023-03-31T09:27:13.881Z,85.26
2023-03-31T09:30:05.569Z,84.93
2023-03-31T09:33:00.910Z,85.16
2023-03-31T09:35:52.247Z,84.50
2023-03-31T09:38:43.987Z,84.24
2023-03-31T09:41:34.152Z,84.01
2023-03-31T09:44:29.669Z,84.06
2023-03-31T09:47:22.622Z,84.15
2023-03-31T09:50:12.807Z,84.04
2023-03-31T09:53:06.065Z,83.23
2023-03-31T09:55:57.379Z,83.14
2023-03-31T09:58:47.256Z,82.95
2023-03-31T10:01:37.517Z,81.82
2023-03-31T10:04:28.970Z,80.48
2023-03-31T10:07:23.042Z,80.32
2023-03-31T10:10:28.656Z,79.89
2023-03-31T10:13:21.242Z,79.56
2023-03-31T10:16:14.708Z,78.61
2023-03-31T10:19:14.988Z,77.24
2023-03-31T10:22:07.349Z,76.31
2023-03-31T10:25:08.385Z,74.88
2023-03-31T10:27:59.002Z,73.62
2023-03-31T10:30:51.166Z,72.52
2023-03-31T10:33:45.408Z,71.00
2023-03-31T10:36:35.594Z,70.39
2023-03-31T10:39:32.728Z,68.98
2023-03-31T10:42:23.496Z,67.50
2023-03-31T10:45:36.309Z,66.57
2023-03-31T10:48:30.065Z,64.89
2023-03-31T10:51:20.726Z,63.35
2023-03-31T10:54:10.279Z,61.12
2023-03-31T10:57:03.406Z,60.73
2023-03-31T11:00:05.820Z,61.03
2023-03-31T11:03:36.306Z,58.82
2023-03-31T11:06:35.247Z,58.19
2023-03-31T11:09:38.461Z,56.98
2023-03-31T11:12:33.169Z,55.36
2023-03-31T11:15:26.493Z,54.57
2023-03-31T11:18:33.161Z,54.40
2023-03-31T11:21:29.333Z,53.53
2023-03-31T11:24:28.879Z,53.86
2023-03-31T11:27:37.277Z,53.62
2023-03-31T11:30:30.256Z,52.86
2023-03-31T11:33:38.831Z,52.96
2023-03-31T11:36:42.906Z,53.01
2023-03-31T11:39:42.599Z,52.63
2023-03-31T11:42:38.823Z,52.96
2023-03-31T11:45:35.117Z,53.03
2023-03-31T11:48:33.100Z,53.12
2023-03-31T11:51:26.317Z,53.21
2023-03-31T11:54:21.693Z,53.55
2023-03-31T11:57:15.759Z,53.44
2023-03-31T12:00:13.394Z,53.58
2023-03-31T12:03:11.084Z,53.38
2023-03-31T12:06:06.595Z,52.96
2023-03-31T12:09:08.344Z,52.52
2023-03-31T12:12:04.607Z,51.79
2023-03-31T12:14:56.844Z,51.90
2023-03-31T12:17:50.886Z,51.34
2023-03-31T12:20:43.801Z,50.98
2023-03-31T12:23:39.912Z,50.89
2023-03-31T12:26:39.652Z,50.87
2023-03-31T12:29:32.905Z,50.45
2023-03-31T12:32:24.769Z,50.92
2023-03-31T12:35:21.726Z,50.53
2023-03-31T12:38:26.556Z,50.49
2023-03-31T12:41:24.580Z,50.47
2023-03-31T12:44:25.471Z,50.44
2023-03-31T12:47:36.863Z,50.38
2023-03-31T12:50:50.713Z,49.50
2023-03-31T12:53:53.707Z,49.71
2023-03-31T12:57:13.874Z,49.75
2023-03-31T13:00:27.136Z,50.11
2023-03-31T13:03:46.115Z,50.31
2023-03-31T13:06:55.732Z,50.89
2023-03-31T13:09:53.194Z,51.64
2023-03-31T13:12:54.945Z,51.77
2023-03-31T13:15:54.415Z,51.46
2023-03-31T13:18:52.431Z,51.74
2023-03-31T13:21:55.311Z,51.89
2023-03-31T13:24:43.934Z,52.08
2023-03-31T13:27:36.031Z,52.44
2023-03-31T13:30:55.090Z,52.28
2023-03-31T13:33:47.975Z,52.46
2023-03-31T13:36:55.171Z,52.67
2023-03-31T13:40:18.264Z,52.78
2023-03-31T13:43:36.642Z,53.04
2023-03-31T13:46:47.406Z,52.96
2023-03-31T13:49:56.332Z,53.28
2023-03-31T13:52:54.672Z,53.72
2023-03-31T13:56:33.984Z,54.07
2023-03-31T13:59:56.210Z,52.96
2023-03-31T14:02:58.415Z,51.83
2023-03-31T14:05:53.545Z,51.37
2023-03-31T14:08:51.355Z,51.42
2023-03-31T14:11:40.881Z,50.77
2023-03-31T14:14:30.818Z,49.47
2023-03-31T14:17:20.269Z,48.58
2023-03-31T14:20:30.680Z,47.73
2023-03-31T14:23:35.593Z,46.72
2023-03-31T14:26:42.618Z,46.02
2023-03-31T14:29:42.560Z,46.01
2023-03-31T14:32:41.410Z,46.02
2023-03-31T14:35:38.613Z,45.83
2023-03-31T14:38:30.562Z,46.02
2023-03-31T14:41:29.822Z,46.09
2023-03-31T14:44:19.256Z,45.29
2023-03-31T14:47:15.404Z,45.14
2023-03-31T14:50:07.806Z,44.69
2023-03-31T14:52:58.657Z,44.74
2023-03-31T14:55:58.235Z,44.52
2023-03-31T14:58:52.861Z,44.84
2023-03-31T15:01:41.855Z,44.66
2023-03-31T15:04:42.160Z,44.85
2023-03-31T15:07:31.608Z,44.81
2023-03-31T15:10:23.918Z,45.08
2023-03-31T15:13:17.584Z,45.14
2023-03-31T15:16:22.170Z,45.20
2023-03-31T15:19:17.556Z,45.33
2023-03-31T15:22:14.197Z,45.61
2023-03-31T15:25:02.943Z,46.00
2023-03-31T15:27:55.855Z,46.01
2023-03-31T15:30:47.645Z,46.22
2023-03-31T15:33:41.433Z,46.49
2023-03-31T15:36:31.703Z,47.10
2023-03-31T15:39:20.317Z,47.46
2023-03-31T15:42:09.464Z,47.62
2023-03-31T15:45:37.375Z,47.84
2023-03-31T15:48:30.223Z,48.14
2023-03-31T15:51:20.775Z,48.84
2023-03-31T15:54:31.309Z,48.26
2023-03-31T15:57:20.028Z,48.05
2023-03-31T16:00:43.065Z,47.74
2023-03-31T16:03:39.089Z,47.64
2023-03-31T16:06:37.978Z,48.05
2023-03-31T16:09:39.250Z,48.05
2023-03-31T16:12:32.049Z,48.09
2023-03-31T16:15:29.993Z,48.45
2023-03-31T16:18:25.102Z,48.48
2023-03-31T16:21:16.795Z,47.95
2023-03-31T16:24:06.486Z,48.15
2023-03-31T16:27:01.480Z,48.32
2023-03-31T16:29:50.418Z,48.66
2023-03-31T16:32:41.162Z,49.05
2023-03-31T16:35:35.023Z,49.76
2023-03-31T16:38:26.913Z,50.68
2023-03-31T16:41:16.341Z,51.71
2023-03-31T16:44:06.350Z,52.87
2023-03-31T16:46:55.407Z,53.84
2023-03-31T16:49:45.419Z,55.02
2023-03-31T16:52:35.128Z,55.76
2023-03-31T16:55:23.815Z,56.32
2023-03-31T16:58:13.604Z,57.03
2023-03-31T17:01:03.186Z,57.38
2023-03-31T17:03:52.317Z,58.05
2023-03-31T17:06:43.401Z,58.10
2023-03-31T17:09:32.453Z,58.65
2023-03-31T17:12:21.349Z,58.56
2023-03-31T17:15:12.054Z,59.06
2023-03-31T17:18:01.348Z,59.17
2023-03-31T17:20:50.078Z,59.47
2023-03-31T17:23:41.166Z,59.40
2023-03-31T17:26:30.298Z,59.54
2023-03-31T17:29:19.490Z,59.52
2023-03-31T17:32:08.856Z,59.47
2023-03-31T17:34:58.088Z,59.70
2023-03-31T17:37:46.801Z,59.50
2023-03-31T17:40:37.869Z,59.40
2023-03-31T17:43:27.520Z,59.54
2023-03-31T17:46:17.414Z,59.42
2023-03-31T17:49:07.749Z,59.12
2023-03-31T17:51:57.335Z,59.19
2023-03-31T17:54:48.635Z,58.94
2023-03-31T17:57:40.617Z,58.77
2023-03-31T18:00:29.979Z,58.56
2023-03-31T18:03:18.771Z,58.80
2023-03-31T18:06:11.494Z,58.81
2023-03-31T18:09:00.703Z,58.94
2023-03-31T18:11:49.799Z,58.72
2023-03-31T18:14:39.801Z,58.51
2023-03-31T18:17:29.960Z,58.72
2023-03-31T18:20:20.564Z,58.95
2023-03-31T18:23:10.188Z,59.04
2023-03-31T18:25:58.915Z,58.83
2023-03-31T18:28:48.745Z,59.10
2023-03-31T18:31:39.463Z,59.39
2023-03-31T18:34:28.852Z,59.27
2023-03-31T18:37:18.351Z,59.82
2023-03-31T18:40:08.773Z,59.96
2023-03-31T18:42:58.028Z,59.68
2023-03-31T18:45:49.368Z,59.95
2023-03-31T18:48:40.546Z,60.39
2023-03-31T18:51:29.687Z,60.27
2023-03-31T18:54:18.348Z,60.35
2023-03-31T18:57:07.322Z,60.56
2023-03-31T18:59:57.060Z,60.68
2023-03-31T19:02:45.886Z,60.48
2023-03-31T19:05:36.446Z,60.54
2023-03-31T19:08:25.599Z,60.92
2023-03-31T19:11:16.110Z,60.87
2023-03-31T19:14:05.365Z,60.74
2023-03-31T19:16:54.000Z,61.21
2023-03-31T19:19:43.658Z,61.06
2023-03-31T19:22:34.271Z,61.26
2023-03-31T19:25:24.589Z,61.63
2023-03-31T19:28:16.784Z,61.49
2023-03-31T19:31:21.273Z,61.88
2023-03-31T19:34:12.119Z,61.94
2023-03-31T19:37:23.637Z,62.22
2023-03-31T19:40:15.784Z,62.17
2023-03-31T19:43:04.515Z,62.16
2023-03-31T19:45:56.134Z,62.37
2023-03-31T19:48:44.917Z,62.20
2023-03-31T19:51:33.914Z,62.19
2023-03-31T19:54:22.759Z,62.41
2023-03-31T19:57:14.003Z,62.40
2023-03-31T20:00:04.104Z,62.41
2023-03-31T20:02:54.325Z,62.34
2023-03-31T20:05:42.914Z,62.57
2023-03-31T20:08:32.431Z,62.65
2023-03-31T20:11:21.339Z,62.59
2023-03-31T20:14:11.745Z,62.51
2023-03-31T20:17:01.081Z,62.46
2023-03-31T20:19:50.240Z,62.54
2023-03-31T20:22:38.957Z,62.73
2023-03-31T20:25:28.324Z,62.80
2023-03-31T20:28:16.868Z,62.50
2023-03-31T20:31:12.342Z,62.74
2023-03-31T20:34:01.626Z,62.63
2023-03-31T20:36:51.584Z,62.60
2023-03-31T20:39:40.097Z,62.55
2023-03-31T20:42:29.018Z,62.72
2023-03-31T20:45:17.736Z,62.70
2023-03-31T20:48:09.582Z,62.98
2023-03-31T20:50:58.470Z,62.96
2023-03-31T20:53:53.950Z,63.00
2023-03-31T20:56:43.115Z,63.00
2023-03-31T20:59:33.007Z,63.02
2023-03-31T21:02:21.718Z,62.77
2023-03-31T21:05:12.810Z,62.87
2023-03-31T21:08:03.837Z,62.79
2023-03-31T21:10:52.358Z,62.62
2023-03-31T21:13:41.713Z,62.68
2023-03-31T21:16:30.754Z,62.73
2023-03-31T21:19:19.759Z,62.31
2023-03-31T21:22:09.660Z,62.63
2023-03-31T21:24:59.061Z,62.52
2023-03-31T21:27:47.537Z,62.28
2023-03-31T21:30:57.726Z,62.52
2023-03-31T21:33:47.863Z,62.47
2023-03-31T21:36:37.353Z,62.37
2023-03-31T21:39:29.404Z,62.45
2023-03-31T21:42:18.335Z,62.42
2023-03-31T21:45:08.848Z,62.47
2023-03-31T21:47:59.132Z,62.39
2023-03-31T21:50:48.045Z,62.13
2023-03-31T21:53:37.418Z,62.25
2023-03-31T21:56:32.051Z,62.13
2023-03-31T21:59:22.072Z,61.98
2023-03-31T22:02:10.755Z,62.21
2023-03-31T22:05:00.254Z,61.97
2023-03-31T22:07:49.031Z,61.95
2023-03-31T22:10:38.712Z,61.85
2023-03-31T22:13:30.977Z,62.17
2023-03-31T22:16:21.681Z,62.08
2023-03-31T22:19:12.924Z,61.95
2023-03-31T22:22:02.842Z,62.00
2023-03-31T22:24:51.857Z,61.88
2023-03-31T22:27:41.621Z,61.94
2023-03-31T22:30:32.084Z,61.92
2023-03-31T22:33:20.624Z,61.77
2023-03-31T22:36:10.140Z,61.67
2023-03-31T22:38:58.785Z,61.83
2023-03-31T22:41:49.379Z,61.88
2023-03-31T22:44:40.232Z,61.54
2023-03-31T22:47:30.963Z,61.99
2023-03-31T22:50:19.740Z,61.71
2023-03-31T22:53:11.093Z,61.82
2023-03-31T22:56:05.656Z,61.72
2023-03-31T22:58:58.908Z,61.88
2023-03-31T23:01:53.196Z,61.96
2023-03-31T23:04:43.041Z,61.96
2023-03-31T23:07:32.902Z,61.85
2023-03-31T23:10:21.437Z,61.71
2023-03-31T23:13:11.615Z,62.18
2023-03-31T23:16:05.127Z,62.34
2023-03-31T23:18:57.030Z,62.79
2023-03-31T23:21:46.982Z,62.68
2023-03-31T23:24:36.629Z,62.83
2023-03-31T23:27:25.465Z,62.91
2023-03-31T23:30:15.619Z,62.84
2023-03-31T23:33:04.208Z,63.03
2023-03-31T23:35:53.864Z,62.91
2023-03-31T23:38:44.642Z,63.10
2023-03-31T23:41:35.312Z,63.20
2023-03-31T23:44:23.788Z,63.16
2023-03-31T23:47:13.102Z,63.26
2023-03-31T23:50:01.618Z,63.03
2023-03-31T23:52:50.598Z,63.16
2023-03-31T23:55:40.974Z,63.29
2023-03-31T23:58:32.628Z,63.36
